KFEP

Details ICAO KFEP
Name ALBERTUS
Region United States
Timezone America/Chicago (UTC-6.0)
Plans Departing 1
Arriving 0
Stats Elevation 859 ft / 262 m (AMSL)
Location 42.247011° -89.582014°
Runways 3
Magnetic Variation 2.439° W
Sunrise 2017-12-14 13:21:02 UTC / 2017-12-14 07:21:02 Local
Sunset 2017-12-14 22:28:01 UTC / 2017-12-14 16:28:01 Local
Advertisement - Login to hide

Runways

ID Width Length Bearing (true) Bearing (mag) Surface Threshold Offset Overrun Length
06 100 ft / 30 m 5,564 ft / 1,696 m 53.18° 55.62° Asphalt 0 ft / 0 m 0 ft / 0 m
13 150 ft / 46 m 2,282 ft / 696 m 126.11° 128.55° Grass 0 ft / 0 m 0 ft / 0 m
18 150 ft / 46 m 2,500 ft / 762 m 179.19° 181.63° Grass 0 ft / 0 m 0 ft / 0 m
24 100 ft / 30 m 5,564 ft / 1,696 m 233.19° 235.63° Asphalt 0 ft / 0 m 0 ft / 0 m
31 150 ft / 46 m 2,282 ft / 696 m 306.12° 308.56° Grass 0 ft / 0 m 0 ft / 0 m
36 150 ft / 46 m 2,500 ft / 762 m 359.19° 1.63° Grass 0 ft / 0 m 0 ft / 0 m

Map

Weather


0- 5 10 15 20 25 30 35+ Temperature / ° C

Clouds and Precipitation
Forecast for 2017-12-14 18:00 UTC. Updated 2 hours ago

Ground ~20,000 ft ~40,000 ft Winds

METAR

KFEP 141455Z AUTO 00000KT 10SM CLR M11/M13 A3009 RMK AO2 T11101132

TAF

Not found

Frequencies

Recorded 119.02 MHz AWOS 3
Clearance 121.85 MHz CLNC DEL
Unicom 122.80 MHz CTAF/UNICOM
Approach 126.00 MHz ROCKFORD APP/DEP
Warning: Do not use this data for real-world aviation or navigation. No guarantee of current accuracy is given.